Bradenton Beach, FL

1:12 AM EDT on September 01, 2015 (GMT -0400)
Anna Maria Island | | Change Station
CLOSE
Current Station
Personal Weather Station
Location: Anna Maria, FL
Elevation: 2 ft
Nearby Weather Stations

Elev 2 ft 27.53 °N, 82.73 °W | Updated 45 seconds ago

Mostly Cloudy
Mostly Cloudy
80.2 °F
Feels Like 87 °F
N
2.7
Wind Variable Wind from SE
Gusts 4.9 mph

Today
High -- | Low -- °F
--% Chance of Precip.
Yesterday
High -- | Low -- °F
Precip. -- in
7:09 AM 7:51 PM
Waning Gibbous, 91% visible
Pressure 30.04 in
Visibility 10.0 miles
Clouds Clear
Heat Index 87 °F
Dew Point 79 °F
Humidity 95%
Rainfall 0.00 in
Snow Depth Not available.
UV 0.0 out of 12
Pollen .60 out of 12
Air Quality Not available.
Flu Activity Not available.
METAR KSRQ 010453Z AUTO 11005KT 10SM CLR 24/24 A3004 RMK AO2 SLP170 T02440239 403060244
Pressure 30.04 in
Visibility 10.0 miles
Clouds Clear
Heat Index 87 °F
Dew Point 79 °F
Humidity 95%
Rainfall 0.00 in
Snow Depth Not available.
UV 0.0 out of 12
Pollen .60 out of 12
Air Quality Not available.
Flu Activity Not available.
METAR KSRQ 010453Z AUTO 11005KT 10SM CLR 24/24 A3004 RMK AO2 SLP170 T02440239 403060244

10-Day Weather Forecast

×

Almanac

Astronomy

Sep. 01, 2015 Rise Set
Actual Time
Civil Twilight
Nautical Twilight
Astronomical Twilight
Moon
Length of Visible Light
Length of Day
Tomorrow will be .
, % of the Moon is Illuminated

Today's Extremes

State Highs State Lows

Community

WunderPhotos

Upload Photos

1,851,479 photos uploaded!

WunderBlogs® & News

Nearby

Air Quality

  Air Quality AQ Index Pollutant
Not available.

Snow Depth

Station Depth Elevation

Earthquake Activity

City Distance Mag. Time & Date
Minimum magnitude displayed is 2.5.

Coastal Water Temperatures

Place Temperature

Stations

Nearby Weather Stations

Station Location Temp. Windchill Dew Point Humidity Wind Precip. Elev Updated Type